createdAt,value
2019-03-12T00:00:13.427Z,101716.49
2019-03-12T00:02:41.936Z,101716.09
2019-03-12T00:05:12.761Z,101710.99
2019-03-12T00:07:41.158Z,101708.37
2019-03-12T00:10:12.331Z,101717.02
2019-03-12T00:12:40.724Z,101714.47
2019-03-12T00:15:13.708Z,101714.59
2019-03-12T00:17:42.102Z,101717.28
2019-03-12T00:20:11.661Z,101718.59
2019-03-12T00:22:43.826Z,101719.23
2019-03-12T00:25:12.232Z,101709.25
2019-03-12T00:27:40.628Z,101717.52
2019-03-12T00:30:10.569Z,101720.29
2019-03-12T00:32:39.085Z,101723.55
2019-03-12T00:35:09.396Z,101728.25
2019-03-12T00:37:37.875Z,101729.83
2019-03-12T00:40:08.412Z,101722.75
2019-03-12T00:42:36.812Z,101724.58
2019-03-12T00:45:08.393Z,101731.11
2019-03-12T00:47:36.824Z,101730.27
2019-03-12T00:50:09.719Z,101727.59
2019-03-12T00:52:39.206Z,101730.47
2019-03-12T00:55:11.285Z,101724.18
2019-03-12T00:57:39.667Z,101726.80
2019-03-12T01:00:16.542Z,101729.13
2019-03-12T01:02:44.958Z,101731.63
2019-03-12T01:05:13.639Z,101727.50
2019-03-12T01:07:42.193Z,101683.95
2019-03-12T01:10:14.763Z,101729.52
2019-03-12T01:12:43.237Z,101735.86
2019-03-12T01:15:13.495Z,101734.87
2019-03-12T01:17:41.918Z,101733.67
2019-03-12T01:20:14.717Z,101738.06
2019-03-12T01:22:43.313Z,101734.98
2019-03-12T01:25:13.235Z,101737.12
2019-03-12T01:27:41.673Z,101734.46
2019-03-12T01:30:17.835Z,101732.67
2019-03-12T01:32:46.517Z,101729.55
2019-03-12T01:35:15.104Z,101722.14
2019-03-12T01:37:43.512Z,101720.47
2019-03-12T01:40:14.045Z,101712.86
2019-03-12T01:42:42.557Z,101716.65
2019-03-12T01:45:13.629Z,101708.02
2019-03-12T01:47:42.098Z,101705.27
2019-03-12T01:50:18.259Z,101704.06
2019-03-12T01:52:46.672Z,101706.69
2019-03-12T01:55:16.425Z,101706.73
2019-03-12T01:57:44.844Z,101711.84
2019-03-12T02:00:20.563Z,101713.33
2019-03-12T02:02:53.296Z,101723.11
2019-03-12T02:05:21.692Z,101720.72
2019-03-12T02:07:50.104Z,101716.53
2019-03-12T02:10:18.557Z,101722.52
2019-03-12T02:12:46.947Z,101726.70
2019-03-12T02:15:17.353Z,101720.69
2019-03-12T02:17:46.789Z,101716.98
2019-03-12T02:20:19.379Z,101720.30
2019-03-12T02:22:47.776Z,101722.86
2019-03-12T02:25:20.102Z,101714.63
2019-03-12T02:27:48.494Z,101712.45
2019-03-12T02:30:21.085Z,101712.00
2019-03-12T02:32:49.480Z,101711.14
2019-03-12T02:35:20.435Z,101705.30
2019-03-12T02:37:48.858Z,101701.97
2019-03-12T02:40:17.727Z,101696.78
2019-03-12T02:42:46.368Z,101689.16
2019-03-12T02:45:16.019Z,101690.25
2019-03-12T02:47:44.509Z,101688.05
2019-03-12T02:50:16.821Z,101686.05
2019-03-12T02:52:45.228Z,101683.03
2019-03-12T02:55:14.667Z,101680.26
2019-03-12T02:57:43.170Z,101673.03
2019-03-12T03:00:19.072Z,101672.64
2019-03-12T03:02:49.576Z,101670.49
2019-03-12T03:05:18.156Z,101656.22
2019-03-12T03:08:06.510Z,101656.22
2019-03-12T03:10:35.021Z,101664.84
2019-03-12T03:13:03.391Z,101665.92
2019-03-12T03:15:46.548Z,101660.00
2019-03-12T03:18:14.937Z,101653.67
2019-03-12T03:20:43.390Z,101669.45
2019-03-12T03:23:11.830Z,101671.36
2019-03-12T03:25:40.248Z,101666.36
2019-03-12T03:28:08.734Z,101666.12
2019-03-12T03:30:37.141Z,101668.59
2019-03-12T03:33:07.617Z,101675.62
2019-03-12T03:35:35.746Z,101680.86
2019-03-12T03:38:04.329Z,101689.80
2019-03-12T03:40:32.706Z,101691.74
2019-03-12T03:43:01.165Z,101688.64
2019-03-12T03:45:31.005Z,101684.56
2019-03-12T03:47:59.363Z,101678.22
2019-03-12T03:50:27.769Z,101681.68
2019-03-12T03:52:56.211Z,101676.34
2019-03-12T03:55:24.672Z,101664.41
2019-03-12T03:57:55.753Z,101660.81
2019-03-12T04:00:30.940Z,101660.81
2019-03-12T04:02:59.345Z,101660.03
2019-03-12T04:05:28.800Z,101659.95
2019-03-12T04:07:58.273Z,101657.03
2019-03-12T04:10:26.645Z,101656.88
2019-03-12T04:12:55.103Z,101656.59
2019-03-12T04:15:26.140Z,101662.27
2019-03-12T04:17:54.634Z,101653.34
2019-03-12T04:20:24.767Z,101653.34
2019-03-12T04:22:54.252Z,101657.86
2019-03-12T04:25:22.663Z,101654.16
2019-03-12T04:27:51.076Z,101655.19
2019-03-12T04:30:20.236Z,101650.47
2019-03-12T04:32:48.619Z,101648.19
2019-03-12T04:35:25.886Z,101636.54
2019-03-12T04:37:54.273Z,101640.61
2019-03-12T04:40:22.743Z,101640.61
2019-03-12T04:42:51.176Z,101639.16
2019-03-12T04:45:19.627Z,101633.56
2019-03-12T04:47:48.049Z,101633.56
2019-03-12T04:50:19.189Z,101646.20
2019-03-12T04:52:48.293Z,101637.70
2019-03-12T04:55:17.324Z,101629.44
2019-03-12T04:57:45.772Z,101628.18
2019-03-12T05:00:21.633Z,101622.36
2019-03-12T05:02:50.077Z,101611.58
2019-03-12T05:05:18.481Z,101611.58
2019-03-12T05:07:46.917Z,101613.03
2019-03-12T05:10:17.628Z,101613.03
2019-03-12T05:12:45.956Z,101611.77
2019-03-12T05:15:20.801Z,101603.64
2019-03-12T05:17:49.201Z,101602.75
2019-03-12T05:20:17.651Z,101594.16
2019-03-12T05:22:46.073Z,101585.48
2019-03-12T05:25:15.341Z,101592.52
2019-03-12T05:27:44.247Z,101593.67
2019-03-12T05:30:17.576Z,101595.11
2019-03-12T05:32:46.174Z,101595.40
2019-03-12T05:35:18.688Z,101602.15
2019-03-12T05:37:50.802Z,101602.15
2019-03-12T05:40:18.441Z,101608.29
2019-03-12T05:42:46.867Z,101592.42
2019-03-12T05:45:18.298Z,101592.42
2019-03-12T05:47:46.739Z,101592.06
2019-03-12T05:50:16.487Z,101592.92
2019-03-12T05:52:44.916Z,101593.97
2019-03-12T05:55:15.845Z,101586.00
2019-03-12T05:57:44.254Z,101588.64
2019-03-12T06:00:21.714Z,101584.44
2019-03-12T06:02:50.303Z,101583.13
2019-03-12T06:05:19.792Z,101585.94
2019-03-12T06:07:49.283Z,101583.31
2019-03-12T06:10:17.815Z,101581.92
2019-03-12T06:12:51.494Z,101579.97
2019-03-12T06:15:19.988Z,101574.52
2019-03-12T06:17:48.410Z,101582.34
2019-03-12T06:20:18.786Z,101580.94
2019-03-12T06:22:47.176Z,101576.06
2019-03-12T06:25:15.801Z,101576.07
2019-03-12T06:27:44.231Z,101575.90
2019-03-12T06:30:19.692Z,101578.24
2019-03-12T06:33:01.466Z,101569.86
2019-03-12T06:35:31.519Z,101568.19
2019-03-12T06:38:19.275Z,101568.30
2019-03-12T06:41:05.164Z,101563.23
2019-03-12T06:43:52.690Z,101566.38
2019-03-12T06:46:28.696Z,101569.18
2019-03-12T06:49:01.215Z,101564.42
2019-03-12T06:51:45.077Z,101570.42
2019-03-12T06:54:14.861Z,101572.87
2019-03-12T06:56:44.890Z,101569.86
2019-03-12T06:59:23.709Z,101566.13
2019-03-12T07:01:59.472Z,101570.05
2019-03-12T07:04:35.233Z,101566.27
2019-03-12T07:07:20.315Z,101561.77
2019-03-12T07:09:51.434Z,101554.34
2019-03-12T07:12:24.439Z,101555.66
2019-03-12T07:15:12.673Z,101550.20
2019-03-12T07:17:45.581Z,101403.50
2019-03-12T07:20:14.648Z,101537.36
2019-03-12T07:22:44.697Z,101542.34
2019-03-12T07:25:17.855Z,101540.19
2019-03-12T07:27:53.948Z,101534.14
2019-03-12T07:30:30.224Z,101524.28
2019-03-12T07:33:02.716Z,101523.73
2019-03-12T07:35:41.302Z,101516.78
2019-03-12T07:38:23.272Z,101520.21
2019-03-12T07:40:59.109Z,101514.13
2019-03-12T07:43:45.155Z,101506.79
2019-03-12T07:46:19.395Z,101504.01
2019-03-12T07:48:52.498Z,101513.80
2019-03-12T07:51:25.207Z,101509.59
2019-03-12T07:54:13.865Z,101505.27
2019-03-12T07:56:55.106Z,101500.63
2019-03-12T07:59:28.136Z,101496.10
2019-03-12T08:02:01.264Z,101491.36
2019-03-12T08:04:44.605Z,101488.92
2019-03-12T08:07:17.604Z,101474.53
2019-03-12T08:10:05.803Z,101475.43
2019-03-12T08:12:38.703Z,101468.27
2019-03-12T08:15:22.638Z,101461.74
2019-03-12T08:17:43.436Z,101452.39
2019-03-12T08:20:13.463Z,101443.36
2019-03-12T08:22:46.197Z,101435.27
2019-03-12T08:25:16.247Z,101434.33
2019-03-12T08:27:59.493Z,101434.48
2019-03-12T08:30:32.538Z,101430.56
2019-03-12T08:33:04.551Z,101422.92
2019-03-12T08:35:46.649Z,101413.98
2019-03-12T08:38:31.411Z,101411.73
2019-03-12T08:41:01.282Z,101405.94
2019-03-12T08:43:50.537Z,101398.28
2019-03-12T08:46:22.339Z,101390.17
2019-03-12T08:48:55.272Z,101389.98
2019-03-12T08:51:31.511Z,101374.62
2019-03-12T08:54:13.864Z,101371.14
2019-03-12T08:56:59.203Z,101360.53
2019-03-12T08:59:31.334Z,101354.98
2019-03-12T09:02:02.526Z,101348.22
2019-03-12T09:04:32.956Z,101341.73
2019-03-12T09:07:05.166Z,101331.45
2019-03-12T09:09:37.495Z,101338.30
2019-03-12T09:12:15.639Z,101340.75
2019-03-12T09:15:01.865Z,101324.94
2019-03-12T09:17:34.549Z,101327.92
2019-03-12T09:20:07.578Z,101309.95
2019-03-12T09:22:42.249Z,101312.27
2019-03-12T09:25:31.655Z,101308.34
2019-03-12T09:28:20.963Z,101304.01
2019-03-12T09:30:51.160Z,101283.84
2019-03-12T09:33:21.198Z,101279.61
2019-03-12T09:35:56.521Z,101283.66
2019-03-12T09:38:31.590Z,101272.55
2019-03-12T09:41:04.558Z,101270.73
2019-03-12T09:43:37.569Z,101259.69
2019-03-12T09:46:10.911Z,101259.58
2019-03-12T09:48:50.310Z,101260.21
2019-03-12T09:51:37.177Z,101245.98
2019-03-12T09:54:15.404Z,101238.64
2019-03-12T09:56:45.486Z,101239.07
2019-03-12T09:59:33.468Z,101227.77
2019-03-12T10:02:20.801Z,101219.53
2019-03-12T10:05:08.535Z,101210.23
2019-03-12T10:07:53.447Z,101213.56
2019-03-12T10:10:29.431Z,101198.89
2019-03-12T10:13:15.569Z,101187.73
2019-03-12T10:15:58.030Z,101178.41
2019-03-12T10:18:33.003Z,101166.81
2019-03-12T10:21:03.045Z,101164.64
2019-03-12T10:23:41.655Z,101167.69
2019-03-12T10:26:11.928Z,101164.47
2019-03-12T10:28:41.980Z,101158.43
2019-03-12T10:31:14.751Z,101149.73
2019-03-12T10:33:45.551Z,101147.83
2019-03-12T10:36:21.200Z,101143.62
2019-03-12T10:39:30.885Z,101137.69
2019-03-12T10:42:07.051Z,101127.74
2019-03-12T10:44:51.175Z,101137.47
2019-03-12T10:47:24.212Z,101138.19
2019-03-12T10:49:52.599Z,101121.70
2019-03-12T10:52:21.631Z,101119.84
2019-03-12T10:54:50.043Z,101114.05
2019-03-12T10:57:21.665Z,101117.12
2019-03-12T10:59:50.487Z,101112.66
2019-03-12T11:02:22.883Z,101104.57
2019-03-12T11:04:51.368Z,101104.31
2019-03-12T11:07:22.548Z,101097.03
2019-03-12T11:09:50.928Z,101094.28
2019-03-12T11:12:19.380Z,101088.52
2019-03-12T11:14:59.858Z,101087.73
2019-03-12T11:17:29.362Z,101076.92
2019-03-12T11:19:57.835Z,101082.61
2019-03-12T11:22:26.538Z,101073.45
2019-03-12T11:24:54.985Z,101061.83
2019-03-12T11:27:23.599Z,101050.38
2019-03-12T11:29:52.908Z,101051.27
2019-03-12T11:32:21.790Z,101045.05
2019-03-12T11:34:50.272Z,101032.21
2019-03-12T11:37:18.653Z,101030.37
2019-03-12T11:39:47.148Z,101021.92
2019-03-12T11:42:15.541Z,101023.44
2019-03-12T11:44:43.909Z,101021.06
2019-03-12T11:47:12.842Z,101019.06
2019-03-12T11:49:41.411Z,101013.23
2019-03-12T11:52:10.061Z,101012.09
2019-03-12T11:54:41.950Z,100998.11
2019-03-12T11:57:10.472Z,100996.41
2019-03-12T11:59:43.425Z,100570.54
2019-03-12T12:02:13.000Z,100997.56
2019-03-12T12:04:41.408Z,100989.70
2019-03-12T12:07:10.140Z,100976.31
2019-03-12T12:09:38.561Z,100966.41
2019-03-12T12:12:07.375Z,100948.38
2019-03-12T12:14:35.788Z,100933.94
2019-03-12T12:17:07.005Z,100923.53
2019-03-12T12:19:35.423Z,100915.20
2019-03-12T12:22:03.833Z,100910.91
2019-03-12T12:24:32.209Z,100904.65
2019-03-12T12:27:00.651Z,100901.19
2019-03-12T12:29:29.071Z,100880.14
2019-03-12T12:32:01.914Z,100867.57
2019-03-12T12:34:30.306Z,100856.75
2019-03-12T12:36:58.711Z,100869.45
2019-03-12T12:39:28.094Z,100860.31
2019-03-12T12:41:56.511Z,100836.88
2019-03-12T12:44:26.949Z,100825.03
2019-03-12T12:46:55.339Z,100820.39
2019-03-12T12:49:24.038Z,100816.03
2019-03-12T12:51:52.594Z,100792.85
2019-03-12T12:54:21.519Z,100785.89
2019-03-12T12:56:49.903Z,100774.16
2019-03-12T12:59:18.321Z,100774.55
2019-03-12T13:01:47.691Z,100773.92
2019-03-12T13:04:16.103Z,100740.55
2019-03-12T13:06:44.497Z,100732.84
2019-03-12T13:09:13.500Z,100724.91
2019-03-12T13:11:44.335Z,100721.80
2019-03-12T13:14:15.590Z,100732.77
2019-03-12T13:16:43.998Z,100747.88
2019-03-12T13:19:12.433Z,100753.13
2019-03-12T13:21:41.847Z,100724.67
2019-03-12T13:24:10.337Z,100719.08
2019-03-12T13:26:39.643Z,100706.89
2019-03-12T13:29:08.091Z,100702.64
2019-03-12T13:31:36.614Z,100696.64
2019-03-12T13:34:05.059Z,100698.59
2019-03-12T13:36:37.806Z,100699.13
2019-03-12T13:39:07.452Z,100664.16
2019-03-12T13:41:36.632Z,100648.62
2019-03-12T13:44:05.220Z,100643.27
2019-03-12T13:46:34.582Z,100620.47
2019-03-12T13:49:03.033Z,100613.19
2019-03-12T13:51:31.444Z,100605.09
2019-03-12T13:53:59.897Z,100606.97
2019-03-12T13:56:28.341Z,100597.59
2019-03-12T13:58:56.707Z,100593.20
2019-03-12T14:01:28.923Z,100588.14
2019-03-12T14:04:10.119Z,100585.92
2019-03-12T14:06:30.657Z,100580.95
2019-03-12T14:08:59.042Z,100566.61
2019-03-12T14:11:27.542Z,100560.00
2019-03-12T14:13:55.943Z,100565.77
2019-03-12T14:16:24.353Z,100555.87
2019-03-12T14:18:53.421Z,100538.33
2019-03-12T14:21:22.937Z,100538.30
2019-03-12T14:24:00.114Z,100544.25
2019-03-12T14:26:28.719Z,100533.58
2019-03-12T14:29:04.282Z,100540.64
2019-03-12T14:31:32.755Z,100524.92
2019-03-12T14:34:01.180Z,100520.34
2019-03-12T14:36:29.680Z,100504.98
2019-03-12T14:38:58.076Z,100495.75
2019-03-12T14:41:26.554Z,100498.30
2019-03-12T14:43:55.114Z,100488.06
2019-03-12T14:46:25.968Z,100481.48
2019-03-12T14:48:55.575Z,100484.44
2019-03-12T14:51:32.438Z,100473.10
2019-03-12T14:54:12.799Z,100456.16
2019-03-12T14:56:42.016Z,100447.41
2019-03-12T14:59:11.544Z,100437.11
2019-03-12T15:01:40.203Z,100427.13
2019-03-12T15:04:09.586Z,100441.84
2019-03-12T15:06:38.316Z,100417.97
2019-03-12T15:09:12.571Z,100415.57
2019-03-12T15:11:41.119Z,100395.55
2019-03-12T15:14:12.144Z,100402.43
2019-03-12T15:16:40.551Z,100402.96
2019-03-12T15:19:08.955Z,100387.25
2019-03-12T15:21:37.798Z,100380.76
2019-03-12T15:24:06.307Z,100371.48
2019-03-12T15:26:34.738Z,100364.81
2019-03-12T15:29:03.707Z,100357.03
2019-03-12T15:31:32.265Z,100343.70
2019-03-12T15:34:00.687Z,100327.46
2019-03-12T15:36:30.168Z,100326.14
2019-03-12T15:39:00.422Z,100308.63
2019-03-12T15:41:31.248Z,100320.53
2019-03-12T15:44:00.904Z,100307.98
2019-03-12T15:46:29.273Z,100313.09
2019-03-12T15:48:57.666Z,100302.73
2019-03-12T15:51:26.093Z,100301.57
2019-03-12T15:53:54.981Z,100305.64
2019-03-12T15:56:23.373Z,100293.27
2019-03-12T15:58:52.748Z,100290.67
2019-03-12T16:01:22.067Z,100274.60
2019-03-12T16:03:51.357Z,100262.99
2019-03-12T16:06:19.906Z,100264.23
2019-03-12T16:08:48.310Z,100244.86
2019-03-12T16:11:16.709Z,100234.81
2019-03-12T16:13:45.109Z,100232.78
2019-03-12T16:16:14.425Z,100235.77
2019-03-12T16:18:43.023Z,100233.73
2019-03-12T16:21:11.611Z,100218.88
2019-03-12T16:23:40.379Z,100212.77
2019-03-12T16:26:08.805Z,100190.05
2019-03-12T16:28:37.233Z,100183.55
2019-03-12T16:31:05.671Z,100163.09
2019-03-12T16:33:34.080Z,100154.64
2019-03-12T16:36:02.505Z,100142.41
2019-03-12T16:38:30.876Z,100141.80
2019-03-12T16:40:59.276Z,100128.95
2019-03-12T16:43:27.696Z,100126.97
2019-03-12T16:45:57.156Z,100120.05
2019-03-12T16:48:26.065Z,100111.30
2019-03-12T16:50:54.453Z,100088.84
2019-03-12T16:53:22.846Z,100087.68
2019-03-12T16:55:53.718Z,100071.83
2019-03-12T16:58:22.091Z,100070.00
2019-03-12T17:00:50.569Z,100065.22
2019-03-12T17:03:19.334Z,100064.08
2019-03-12T17:05:47.722Z,100055.97
2019-03-12T17:08:16.960Z,100052.88
2019-03-12T17:10:56.029Z,100049.55
2019-03-12T17:13:19.089Z,100043.35
2019-03-12T17:15:51.034Z,100039.44
2019-03-12T17:18:18.602Z,100042.55
2019-03-12T17:20:47.040Z,100028.88
2019-03-12T17:23:16.661Z,100026.23
2019-03-12T17:25:44.990Z,100027.04
2019-03-12T17:28:14.095Z,100023.58
2019-03-12T17:30:43.777Z,100014.63
2019-03-12T17:33:12.197Z,100008.31
2019-03-12T17:35:42.360Z,100005.33
2019-03-12T17:38:10.845Z,100005.33
2019-03-12T17:40:40.247Z,99987.81
2019-03-12T17:43:08.622Z,99981.08
2019-03-12T17:45:37.439Z,99983.13
2019-03-12T17:48:05.988Z,99977.84
2019-03-12T17:50:35.684Z,99972.38
2019-03-12T17:55:55.109Z,99965.42
2019-03-12T17:58:23.582Z,99954.68
2019-03-12T18:00:52.013Z,99948.25
2019-03-12T18:03:27.517Z,99948.72
2019-03-12T18:09:17.800Z,99942.75
2019-03-12T18:11:54.160Z,99938.91
2019-03-12T18:14:30.632Z,99932.47
2019-03-12T18:17:02.797Z,99922.88
2019-03-12T18:19:33.751Z,99903.02
2019-03-12T18:22:06.500Z,99898.25
2019-03-12T18:24:46.911Z,99887.00
2019-03-12T18:27:19.057Z,99878.41
2019-03-12T18:29:47.636Z,99875.30
2019-03-12T18:32:16.153Z,99861.63
2019-03-12T18:34:44.613Z,99856.19
2019-03-12T18:37:13.080Z,99840.64
2019-03-12T18:39:41.617Z,99832.77
2019-03-12T18:42:10.186Z,99819.27
2019-03-12T18:44:43.809Z,99821.11
2019-03-12T18:47:12.249Z,99815.70
2019-03-12T18:49:40.819Z,99813.05
2019-03-12T18:52:09.253Z,99804.79
2019-03-12T18:54:37.730Z,99804.75
2019-03-12T18:57:06.193Z,99795.52
2019-03-12T18:59:34.667Z,99788.56
2019-03-12T19:02:06.730Z,99768.09
2019-03-12T19:04:35.107Z,99764.80
2019-03-12T19:07:04.637Z,99767.28
2019-03-12T19:09:36.778Z,99759.22
2019-03-12T19:12:05.230Z,99753.60
2019-03-12T19:14:33.668Z,99749.33
2019-03-12T19:17:03.799Z,99749.00
2019-03-12T19:19:32.187Z,99731.02
2019-03-12T19:22:00.645Z,99726.58
2019-03-12T19:24:29.245Z,99718.66
2019-03-12T19:26:57.818Z,99709.72
2019-03-12T19:29:26.272Z,99703.66
2019-03-12T19:31:58.867Z,99696.55
2019-03-12T19:34:28.938Z,99689.44
2019-03-12T19:36:57.335Z,99682.86
2019-03-12T19:39:25.744Z,99686.66
2019-03-12T19:41:54.540Z,99690.95
2019-03-12T19:44:22.977Z,99673.61
2019-03-12T19:46:51.377Z,99662.89
2019-03-12T19:49:23.577Z,99660.55
2019-03-12T19:51:51.996Z,99655.78
2019-03-12T19:54:20.400Z,99656.59
2019-03-12T19:56:48.797Z,99646.03
2019-03-12T19:59:17.193Z,99644.20
2019-03-12T20:01:45.774Z,99644.70
2019-03-12T20:04:15.301Z,99643.05
2019-03-12T20:06:43.800Z,99643.08
2019-03-12T20:09:15.452Z,99637.45
2019-03-12T20:11:52.373Z,99615.97
2019-03-12T20:14:44.849Z,99597.98
2019-03-12T20:17:34.267Z,99596.84
2019-03-12T20:20:23.748Z,99591.58
2019-03-12T20:23:27.974Z,99582.48
2019-03-12T20:26:34.526Z,99556.23
2019-03-12T20:29:14.930Z,99548.30
2019-03-12T20:32:19.971Z,99529.52
2019-03-12T20:35:09.531Z,99518.64
2019-03-12T20:38:09.905Z,99505.75
2019-03-12T20:40:50.166Z,99508.69
2019-03-12T20:43:56.815Z,99498.13
2019-03-12T20:47:01.712Z,99506.89
2019-03-12T20:49:39.130Z,99500.45
2019-03-12T20:52:27.108Z,99519.25
2019-03-12T20:55:19.487Z,99500.63
2019-03-12T20:58:05.757Z,99497.80
2019-03-12T21:00:59.878Z,99503.42
2019-03-12T21:03:36.914Z,99508.08
2019-03-12T21:06:36.902Z,99522.61
2019-03-12T21:09:27.401Z,99505.06
2019-03-12T21:12:28.578Z,99515.96
2019-03-12T21:15:03.663Z,99516.29
2019-03-12T21:17:57.818Z,99513.99
2019-03-12T21:21:05.990Z,99505.89
2019-03-12T21:23:48.775Z,99495.17
2019-03-12T21:26:33.446Z,99475.03
2019-03-12T21:29:30.231Z,99476.37
2019-03-12T21:31:58.641Z,99468.43
2019-03-12T21:34:27.030Z,99476.37
2019-03-12T21:36:59.190Z,99478.00
2019-03-12T21:39:27.784Z,99451.45
2019-03-12T21:41:57.194Z,99451.78
2019-03-12T21:44:26.765Z,99436.45
2019-03-12T21:46:58.834Z,99416.63
2019-03-12T21:49:27.209Z,99413.86
2019-03-12T21:51:56.743Z,99404.77
2019-03-12T21:54:25.149Z,99388.45
2019-03-12T21:56:53.531Z,99385.97
2019-03-12T21:59:21.900Z,99372.47
2019-03-12T22:01:50.308Z,99363.55
2019-03-12T22:04:18.661Z,99358.29
2019-03-12T22:06:47.066Z,99349.38
2019-03-12T22:09:15.627Z,99341.77
2019-03-12T22:11:44.010Z,99339.14
2019-03-12T22:14:12.373Z,99327.61
2019-03-12T22:16:45.447Z,99319.49
2019-03-12T22:19:13.098Z,99325.76
2019-03-12T22:21:44.209Z,99317.05
2019-03-12T22:24:14.283Z,99312.41
2019-03-12T22:26:43.685Z,99289.66
2019-03-12T22:29:13.133Z,99310.09
2019-03-12T22:31:41.509Z,99301.53
2019-03-12T22:34:09.879Z,99305.00
2019-03-12T22:36:38.372Z,99300.54
2019-03-12T22:39:06.989Z,99285.37
2019-03-12T22:41:35.392Z,99295.61
2019-03-12T22:44:03.796Z,99290.49
2019-03-12T22:46:32.173Z,99290.14
2019-03-12T22:49:00.575Z,99284.08
2019-03-12T22:51:28.975Z,99282.08
2019-03-12T22:53:57.351Z,99276.79
2019-03-12T22:56:29.541Z,99220.45
2019-03-12T22:58:58.008Z,99266.55
2019-03-12T23:01:26.402Z,99275.13
2019-03-12T23:03:55.810Z,99266.38
2019-03-12T23:06:24.222Z,99257.61
2019-03-12T23:08:52.625Z,99265.71
2019-03-12T23:11:21.029Z,99263.58
2019-03-12T23:13:50.429Z,99269.21
2019-03-12T23:16:19.809Z,99270.86
2019-03-12T23:18:48.201Z,99263.91
2019-03-12T23:21:16.592Z,99266.22
2019-03-12T23:23:45.020Z,99263.44
2019-03-12T23:26:17.084Z,99256.05
2019-03-12T23:28:45.607Z,99256.86
2019-03-12T23:31:15.348Z,99250.13
2019-03-12T23:33:43.640Z,99245.19
2019-03-12T23:36:13.426Z,99224.75
2019-03-12T23:38:41.987Z,99216.52
2019-03-12T23:41:12.851Z,99213.71
2019-03-12T23:43:41.318Z,99209.91
2019-03-12T23:46:11.920Z,99214.89
2019-03-12T23:48:43.409Z,99214.38
2019-03-12T23:51:11.790Z,99205.11
2019-03-12T23:53:42.936Z,99204.98
2019-03-12T23:56:11.528Z,99201.48
2019-03-12T23:58:39.896Z,99198.51
